Date,TemperatureHighF,TemperatureAvgF,TemperatureLowF,DewpointHighF,DewpointAvgF,DewpointLowF,HumidityHigh,HumidityAvg,HumidityLow,PressureMaxIn,PressureMinIn,WindSpeedMaxMPH,WindSpeedAvgMPH,GustSpeedMaxMPH,PrecipitationSumIn
2012-1-1,62,44,32,47,32,16,97,66,38,30.10,29.73,13,4,19,0.02
2012-1-2,36,28,22,25,18,13,93,67,39,30.21,30.03,12,3,22,0.00
2012-1-3,26,22,16,16,13,10,83,69,52,30.39,30.21,7,2,18,0.00
2012-1-4,39,28,16,24,16,11,83,64,36,30.32,30.01,7,1,14,0.00
2012-1-5,50,40,27,28,24,20,87,53,31,30.15,29.96,6,1,12,0.00
2012-1-6,64,50,38,31,27,22,60,42,26,29.96,29.81,12,2,20,0.00
2012-1-7,60,50,32,49,34,21,82,56,26,30.15,29.80,8,1,18,0.00
2012-1-8,49,36,25,31,26,23,94,71,38,30.32,30.15,5,0,8,0.00
2012-1-9,52,39,32,35,30,26,93,69,44,30.24,30.03,2,0,7,0.00
2012-1-10,54,38,26,35,30,25,98,77,40,30.12,29.92,3,0,12,0.00
2012-1-11,50,41,30,49,39,27,100,95,86,29.91,29.39,3,0,8,0.51
2012-1-12,51,43,23,50,39,16,100,87,72,29.70,29.35,12,3,29,0.23
2012-1-13,24,21,18,18,14,9,87,73,64,30.12,29.69,12,3,25,0.00
2012-1-14,35,27,22,24,17,13,84,65,43,30.19,30.08,7,2,17,0.00
2012-1-15,36,28,24,23,20,17,86,72,52,30.51,30.18,3,1,7,0.01
2012-1-16,56,40,21,35,25,18,92,60,32,30.38,29.97,7,2,13,0.01
2012-1-17,61,53,37,54,42,25,91,66,43,30.05,29.64,10,4,18,0.43
2012-1-18,37,31,22,25,19,14,84,62,47,30.25,30.05,6,2,11,0.00
2012-1-19,42,31,18,26,19,16,90,64,36,30.15,29.90,5,1,14,0.00
2012-1-20,35,31,24,30,22,14,86,70,60,30.21,29.85,2,1,5,0.00
2012-1-21,34,31,29,30,28,27,95,91,84,30.23,29.77,3,0,6,0.07
2012-1-22,51,37,29,42,35,28,99,92,72,30.21,29.91,2,0,4,0.00
2012-1-23,67,58,51,54,48,39,98,70,44,29.90,29.62,10,5,30,0.40
2012-1-24,54,43,32,35,32,27,83,65,46,30.33,30.15,4,1,13,0.00
2012-1-25,45,38,28,37,32,26,92,80,66,30.35,30.11,2,0,3,0.01
2012-1-26,60,49,40,57,46,36,98,91,84,30.09,29.40,5,1,10,0.19
2012-1-27,59,43,38,56,39,32,96,85,76,30.08,29.40,6,2,13,0.14
2012-1-28,46,38,28,37,27,13,97,68,30,30.29,29.96,8,2,13,0.01
2012-1-29,51,37,25,22,18,14,77,50,24,30.30,30.06,9,3,20,0.00
2012-1-30,60,41,23,27,22,18,84,53,26,30.34,30.15,7,2,12,0.00
2012-1-31,66,56,47,26,24,21,40,30,20,30.21,30.03,7,2,13,0.00
2012-2-1,59,54,47,52,47,24,93,78,26,30.08,29.96,10,1,12,0.01
2012-2-2,57,48,34,52,40,32,99,77,42,30.39,29.96,4,1,8,0.46
2012-2-3,55,39,27,37,31,26,98,75,36,30.49,30.27,3,0,6,0.00
2012-2-4,43,40,38,39,36,32,97,86,65,30.26,30.03,2,0,3,0.16
2012-2-5,49,39,29,38,34,27,97,84,50,30.24,30.02,3,0,6,0.00
2012-2-6,47,34,26,42,30,25,100,84,55,30.25,30.13,3,0,6,0.01
2012-2-7,53,38,25,35,29,24,98,73,42,30.25,30.15,3,1,6,0.00
2012-2-8,37,34,32,34,29,25,94,80,71,30.30,30.18,3,1,7,0.08
2012-2-9,37,34,32,28,25,21,85,68,53,30.35,30.21,2,0,5,0.00
2012-2-10,36,33,31,30,27,24,96,80,65,30.21,29.92,2,0,6,0.01
2012-2-11,32,25,20,32,17,4,97,72,41,30.33,29.83,8,3,17,0.02
2012-2-12,35,25,16,18,12,6,81,59,44,30.38,30.25,5,2,9,0.01
2012-2-13,40,31,20,24,18,15,83,60,40,30.30,30.00,2,0,5,0.00
2012-2-14,42,37,33,39,33,23,96,86,64,30.13,29.89,2,0,5,0.13
2012-2-15,54,44,34,38,34,30,91,68,48,30.27,30.02,4,1,7,0.00
2012-2-16,52,48,44,50,44,36,97,89,62,30.11,29.96,4,1,12,0.24
2012-2-17,54,43,32,37,30,22,93,64,30,30.19,30.10,3,1,8,0.00
2012-2-18,58,42,27,34,28,25,94,63,34,30.10,29.99,5,1,8,0.00
2012-2-19,40,37,33,27,23,21,65,59,51,30.08,29.89,4,2,6,0.00
2012-2-20,47,34,23,26,22,19,86,63,34,30.33,30.08,3,1,5,0.00
2012-2-21,55,43,26,39,32,23,89,66,42,30.15,29.82,10,2,20,0.00
2012-2-22,62,49,37,45,38,29,89,69,30,29.88,29.46,8,2,21,0.03
2012-2-23,60,50,40,48,44,39,99,79,56,29.62,29.33,5,1,10,0.15
2012-2-24,56,47,34,54,38,27,100,74,38,29.93,29.33,11,4,22,0.22
2012-2-25,38,33,24,29,18,10,82,54,32,30.38,29.92,10,4,19,0.00
2012-2-26,53,34,19,24,19,14,92,61,22,30.46,30.24,4,1,8,0.00
2012-2-27,66,49,30,35,27,22,79,46,28,30.43,30.22,7,2,13,0.00
2012-2-28,63,45,28,31,26,22,84,51,23,30.45,30.06,3,0,6,0.00
2012-2-29,67,58,47,61,51,26,96,80,40,30.06,29.60,7,2,12,0.85
2012-3-1,62,53,38,51,36,32,87,53,37,29.86,29.63,7,3,14,0.01
2012-3-2,64,48,32,58,44,31,98,86,47,29.84,29.28,8,2,16,0.56
2012-3-3,54,46,37,38,28,21,74,51,30,29.82,29.58,10,4,16,0.00
2012-3-4,38,34,28,33,25,20,91,71,50,29.92,29.82,6,1,14,0.02
2012-3-5,38,33,27,30,26,20,96,77,50,30.49,29.84,5,1,10,0.23
2012-3-6,64,41,23,34,25,21,93,60,23,30.52,30.30,4,1,8,0.00
2012-3-7,72,58,41,42,32,21,74,39,28,30.41,30.19,8,3,13,0.00
2012-3-8,65,56,42,56,46,34,97,69,51,30.23,29.97,9,3,16,0.57
2012-3-9,54,43,33,36,27,19,91,58,31,30.47,30.23,7,2,13,0.00
2012-3-10,55,39,26,28,21,15,81,51,25,30.57,30.39,3,1,8,0.00
2012-3-11,73,50,28,38,29,24,90,53,20,30.44,30.23,5,1,8,0.00
2012-3-12,70,57,47,58,47,35,89,70,49,30.23,30.03,6,1,13,0.11
2012-3-13,78,66,56,59,54,50,90,68,40,30.11,30.00,6,2,9,0.00
2012-3-14,82,63,46,55,49,44,99,67,29,30.19,30.07,4,1,6,0.00
2012-3-15,67,59,50,59,54,46,97,83,70,30.22,30.06,10,2,11,0.23
2012-3-16,74,64,56,60,56,52,99,78,56,30.17,30.08,4,1,8,0.29
2012-3-17,76,65,57,59,57,53,96,78,49,30.17,30.07,4,0,8,0.00
2012-3-18,79,66,56,60,57,54,97,76,46,30.21,30.02,5,2,8,0.06
2012-3-19,86,70,57,59,55,52,91,65,33,30.12,30.00,4,0,7,0.00
2012-3-20,88,70,55,59,53,46,95,60,23,30.13,30.00,3,0,6,0.00
2012-3-21,89,72,53,57,53,48,92,56,26,30.14,30.00,3,0,6,0.00
2012-3-22,86,71,56,58,55,52,91,61,32,30.14,29.99,2,0,5,0.00
2012-3-23,81,67,58,65,59,54,96,79,42,30.01,29.79,10,0,12,0.06
2012-3-24,69,60,51,62,54,47,98,81,48,29.83,29.74,7,1,11,0.17
2012-3-25,70,59,50,54,51,48,97,76,52,29.95,29.78,5,1,10,0.00
2012-3-26,64,55,43,54,40,20,99,64,24,30.27,29.95,5,1,11,0.00
2012-3-27,69,49,31,37,26,20,73,43,20,30.33,30.02,3,1,6,0.00
2012-3-28,82,63,46,62,50,35,92,64,40,30.01,29.77,10,2,17,0.11
2012-3-29,69,58,44,55,42,37,96,60,33,30.03,29.87,3,1,7,0.00
2012-3-30,79,60,47,56,47,38,76,63,43,29.98,29.67,7,2,12,0.00
2012-3-31,68,58,50,56,49,42,87,73,63,29.90,29.72,3,1,7,0.00
2012-4-1,75,57,39,56,46,38,98,70,43,29.90,29.63,7,1,10,0.00
2012-4-2,71,60,50,59,42,31,97,56,25,29.93,29.63,5,1,7,0.02
2012-4-3,83,62,42,57,44,38,87,57,30,29.94,29.78,6,1,11,0.00
2012-4-4,78,65,59,65,56,35,93,73,40,29.78,29.65,4,0,9,0.19
2012-4-5,61,53,46,35,30,25,59,41,28,29.89,29.74,4,2,7,0.00
2012-4-6,62,49,37,34,28,21,69,47,21,30.18,29.89,4,1,8,0.00
2012-4-7,69,50,30,32,26,20,86,46,16,30.31,30.15,2,0,5,0.00
2012-4-8,70,55,39,44,33,26,70,47,21,30.16,30.04,4,1,8,0.00
2012-4-9,70,54,37,37,31,24,87,47,24,30.09,29.84,8,2,18,0.00
2012-4-10,60,52,41,29,25,18,49,36,23,30.03,29.87,6,2,12,0.00
2012-4-11,51,41,29,30,25,19,78,53,38,30.22,30.01,2,1,7,0.00
2012-4-12,63,46,28,34,30,26,96,60,27,30.29,30.11,3,0,8,0.00
2012-4-13,70,52,34,39,34,28,94,56,24,30.24,30.12,4,1,8,0.00
2012-4-14,72,57,44,56,46,38,95,69,38,30.15,29.99,4,0,8,0.04
2012-4-15,86,67,49,55,50,46,99,62,26,30.05,29.90,8,2,12,0.00
2012-4-16,81,72,59,60,54,47,81,52,34,30.11,29.89,11,3,17,0.00
2012-4-17,64,57,47,49,43,38,89,62,40,30.31,30.11,2,0,5,0.00
2012-4-18,60,54,46,51,46,41,95,75,60,30.21,30.05,3,0,8,0.00
2012-4-19,73,57,45,52,48,44,99,77,39,30.11,29.91,3,0,6,0.00
2012-4-20,78,62,44,56,51,43,99,70,40,29.91,29.69,7,1,10,0.00
2012-4-21,60,53,46,54,49,43,96,87,75,29.90,29.69,2,0,6,0.31
2012-4-22,47,45,42,43,38,30,93,78,60,29.89,29.76,3,1,7,0.00
2012-4-23,59,49,39,34,26,17,83,46,20,29.76,29.63,5,2,17,0.02
2012-4-24,64,51,36,33,23,18,53,35,22,29.74,29.65,5,1,12,0.00
2012-4-25,64,56,50,54,44,34,96,67,47,29.85,29.73,4,1,8,0.14
2012-4-26,76,62,54,65,58,48,100,87,60,29.89,29.62,5,1,10,1.09
2012-4-27,65,54,44,48,38,31,85,57,29,30.17,29.90,3,1,7,0.00
2012-4-28,63,51,42,52,42,32,92,72,50,30.18,29.96,4,1,7,0.27
2012-4-29,69,56,46,56,48,41,95,78,61,30.21,30.06,2,1,6,0.00
2012-4-30,87,68,50,64,56,49,99,70,35,30.10,29.89,8,2,13,0.04
2012-5-1,82,72,62,67,64,61,99,79,55,30.05,29.89,4,1,7,0.17
2012-5-2,90,75,62,67,62,60,94,69,40,30.03,29.94,7,1,12,0.00
2012-5-3,90,76,60,68,64,60,99,72,39,30.07,29.94,4,1,9,0.00
2012-5-4,81,74,66,69,67,64,95,81,61,30.00,29.84,4,1,8,1.19
2012-5-5,78,69,64,69,66,63,99,90,64,29.94,29.81,4,0,7,0.90
2012-5-6,83,71,60,68,64,60,100,82,53,30.00,29.86,3,0,7,0.00
2012-5-7,85,72,61,68,64,61,100,79,50,29.89,29.74,7,1,10,0.08
2012-5-8,77,69,58,68,63,56,99,84,58,29.84,29.73,4,1,11,0.88
2012-5-9,72,62,56,58,52,45,99,72,40,29.84,29.70,3,0,6,0.01
2012-5-10,70,57,45,49,44,36,98,66,30,30.00,29.79,3,0,8,0.00
2012-5-11,72,56,40,48,41,32,99,64,26,30.18,30.01,3,0,7,0.00
2012-5-12,78,61,43,60,48,42,99,69,32,30.26,30.14,2,0,4,0.00
2012-5-13,64,61,58,60,59,56,98,93,79,30.15,30.03,2,0,4,0.49
2012-5-14,65,60,57,61,59,56,100,95,85,30.02,29.95,2,0,3,0.06
2012-5-15,78,64,54,64,56,53,100,80,43,30.01,29.91,2,0,3,0.01
2012-5-16,84,68,52,63,55,48,100,68,30,29.96,29.85,3,1,7,0.00
2012-5-17,74,63,52,58,46,36,84,56,35,30.08,29.96,3,1,7,0.00
2012-5-18,84,65,47,63,53,45,97,69,35,30.08,29.97,2,0,5,0.00
2012-5-19,86,70,55,65,59,53,99,72,33,30.09,30.01,2,0,5,0.00
2012-5-20,84,70,57,67,58,49,99,71,32,30.13,29.98,2,0,6,0.00
2012-5-21,86,72,57,64,58,50,99,69,29,29.98,29.82,4,0,8,0.00
2012-5-22,70,67,64,64,62,61,95,85,76,29.91,29.84,1,0,3,0.09
2012-5-23,80,68,59,64,62,58,99,82,58,29.89,29.82,2,0,5,0.00
2012-5-24,84,70,59,66,62,58,100,79,47,29.95,29.82,4,1,7,0.00
2012-5-25,90,75,59,71,65,58,98,74,44,30.04,29.90,4,1,7,0.00
2012-5-26,93,78,64,73,67,63,99,73,38,30.12,30.00,1,0,3,0.00
2012-5-27,93,80,66,75,70,65,98,75,43,30.05,29.93,2,0,8,0.00
2012-5-28,92,80,71,74,69,64,97,71,44,29.97,29.83,4,1,8,0.00
2012-5-29,81,72,68,71,68,65,97,86,63,29.85,29.76,5,1,10,0.25
2012-5-30,85,73,62,70,63,57,100,75,42,29.83,29.74,5,1,8,0.00
2012-5-31,82,69,53,59,53,45,98,62,30,29.87,29.67,3,1,7,0.00
2012-6-1,72,65,58,65,59,49,96,82,62,29.83,29.60,8,2,11,0.22
2012-6-2,72,62,51,51,48,45,95,65,39,29.90,29.82,6,2,12,0.00
2012-6-3,81,68,55,59,54,50,86,63,37,29.87,29.76,5,1,8,0.00
2012-6-4,82,71,57,59,55,48,94,59,31,29.78,29.68,4,1,10,0.00
2012-6-5,75,63,50,55,52,49,95,70,45,29.88,29.76,3,1,6,0.00
2012-6-6,76,64,54,57,54,50,95,72,45,29.99,29.86,3,0,7,0.02
2012-6-7,82,66,50,58,52,46,99,67,30,30.05,29.98,2,0,4,0.00
2012-6-8,86,69,51,57,52,46,98,62,26,30.06,29.92,2,0,5,0.00
2012-6-9,88,72,54,61,55,50,97,63,30,30.03,29.92,3,0,5,0.00
2012-6-10,88,73,55,65,59,54,98,65,33,30.04,29.97,4,1,7,0.00
2012-6-11,80,72,67,71,64,59,95,78,61,29.99,29.89,3,0,4,0.06
2012-6-12,88,79,65,71,67,57,99,69,49,29.93,29.83,5,1,8,0.00
2012-6-13,81,70,57,58,52,46,82,55,33,30.06,29.93,3,1,8,0.00
2012-6-14,85,68,48,57,51,46,96,60,27,30.10,30.02,3,0,7,0.00
2012-6-15,86,69,58,64,59,55,95,74,44,30.10,30.03,2,0,6,0.00
2012-6-16,86,75,61,68,63,58,89,66,48,30.19,30.01,4,1,8,0.00
2012-6-17,82,71,66,72,67,64,96,87,65,30.02,29.90,5,1,7,0.33
2012-6-18,88,76,67,70,67,64,98,77,45,29.97,29.88,5,1,10,0.03
2012-6-19,92,76,65,71,66,63,99,76,40,30.09,29.96,4,1,6,0.00
2012-6-20,94,80,66,72,68,64,98,69,37,30.13,29.98,3,0,7,0.00
2012-6-21,93,81,73,73,70,64,93,72,39,30.00,29.84,5,1,10,0.00
2012-6-22,88,78,66,73,66,56,99,71,39,29.88,29.82,2,0,10,0.00
2012-6-23,90,74,60,66,60,54,97,66,31,29.97,29.88,2,0,2,0.00
2012-6-24,90,78,64,66,62,54,97,64,32,29.98,29.83,3,0,6,0.00
2012-6-25,87,74,63,66,58,45,97,62,26,29.92,29.79,3,1,7,0.00
2012-6-26,80,68,54,51,48,45,79,50,29,29.98,29.88,3,1,7,0.00
2012-6-27,88,70,51,58,52,48,96,59,25,30.03,29.89,3,1,5,0.00
2012-6-28,104,80,56,65,58,54,95,53,24,29.92,29.74,6,2,17,0.00
2012-6-29,104,96,83,72,67,62,50,39,30,29.84,29.67,5,2,12,0.00
2012-6-30,87,82,78,72,71,70,77,68,59,29.82,29.80,0,0,0,0.00
2012-7-1,99,82,69,74,67,60,95,66,29,29.99,29.81,5,1,6,0.16
2012-7-2,97,85,64,70,66,61,98,58,31,30.02,29.89,3,1,8,0.00
2012-7-3,98,84,71,70,66,58,95,61,29,29.95,29.81,4,1,7,0.00
2012-7-4,99,85,70,73,69,63,92,62,32,29.93,29.81,3,1,6,0.00
2012-7-5,96,80,72,73,70,65,93,74,45,29.94,29.85,6,1,8,0.06
2012-7-6,102,83,68,71,68,64,97,66,31,29.97,29.85,2,0,6,0.00
2012-7-7,105,88,71,73,68,59,95,58,23,29.93,29.82,3,0,4,0.00
2012-7-8,103,81,72,73,71,65,98,75,30,29.92,29.80,5,1,10,0.94
2012-7-9,82,75,69,72,68,63,99,81,54,29.98,29.90,1,0,4,0.01
2012-7-10,90,83,72,70,64,58,90,54,37,29.99,29.91,3,1,5,0.00
2012-7-11,90,78,65,67,65,60,98,68,39,30.03,29.96,4,1,5,0.00
2012-7-12,85,74,65,67,63,59,98,70,46,30.09,30.02,5,1,9,0.00
2012-7-13,74,69,65,72,67,61,99,93,72,30.12,30.04,2,0,5,0.97
2012-7-14,91,80,71,73,71,68,99,76,49,30.10,30.01,4,1,8,0.03
2012-7-15,88,79,70,72,70,68,98,77,54,30.13,29.99,5,1,14,0.02
2012-7-16,93,84,71,74,71,69,97,66,47,30.01,29.85,7,1,10,0.00
2012-7-17,92,78,71,76,73,70,98,85,51,29.93,29.83,7,0,16,0.67
2012-7-18,90,82,71,76,73,64,99,77,57,29.96,29.83,4,1,12,0.36
2012-7-19,89,75,67,74,71,67,99,90,59,29.96,29.83,5,1,7,0.24
2012-7-20,77,73,70,74,71,69,99,95,87,29.93,29.80,2,0,5,0.45
2012-7-21,82,70,68,69,55,-100,90,73,59,30.05,29.92,1,-55,3,0.00
2012-7-22,90,75,64,74,63,-100,100,75,43,30.12,30.03,2,-14,3,0.00
2012-7-23,91,81,70,75,72,68,96,76,55,30.08,29.92,4,1,7,0.00
2012-7-24,84,76,69,75,71,69,99,86,71,30.02,29.85,5,1,12,1.25
2012-7-25,91,80,69,78,73,69,99,82,59,29.93,29.76,2,1,6,0.00
2012-7-26,94,84,71,76,73,66,96,72,53,29.81,29.64,7,2,18,0.69
2012-7-27,89,77,68,74,70,63,99,82,51,29.94,29.75,6,1,10,0.77
2012-7-28,86,75,64,70,66,62,98,75,51,30.01,29.86,3,0,6,0.00
2012-7-29,85,74,64,68,65,62,99,77,46,30.05,29.95,2,0,4,0.00
2012-7-30,89,75,61,70,64,60,100,74,39,30.00,29.87,2,0,6,0.00
2012-7-31,92,78,66,71,67,63,99,73,40,29.89,29.78,3,0,6,0.00
2012-8-1,93,80,68,73,69,64,97,73,38,29.86,29.76,2,0,6,0.01
2012-8-2,91,79,66,71,67,60,99,72,36,29.86,29.80,2,0,7,0.00
2012-8-3,86,64,67,73,47,-100,98,76,63,29.95,29.82,6,-126,9,0.04
2012-8-4,88,78,70,76,71,68,99,82,64,30.01,29.92,7,1,10,1.78
2012-8-5,87,79,75,73,71,69,87,77,63,30.07,29.98,6,2,9,0.00
2012-8-6,89,79,70,72,67,63,94,69,43,30.08,29.95,2,0,6,0.00
2012-8-7,91,77,65,70,64,53,99,69,30,29.98,29.89,2,0,5,0.00
2012-8-8,93,78,64,72,67,62,99,73,36,29.96,29.86,3,0,6,0.00
2012-8-9,89,77,69,77,69,58,97,77,44,29.89,29.74,5,1,11,0.08
2012-8-10,84,72,66,72,64,59,98,78,49,29.81,29.68,5,1,11,0.42
2012-8-11,76,66,56,61,57,54,95,74,55,29.96,29.81,3,1,6,0.00
2012-8-12,83,69,56,64,58,53,100,73,37,30.02,29.95,3,0,6,0.00
2012-8-13,84,72,60,68,62,57,98,75,41,30.01,29.87,4,0,7,0.00
2012-8-14,81,70,64,70,66,63,97,87,63,29.88,29.81,3,0,5,0.13
2012-8-15,82,71,65,67,65,60,99,84,49,29.97,29.85,2,0,3,0.00
2012-8-16,87,73,60,68,63,60,100,75,41,30.01,29.84,3,0,7,0.00
2012-8-17,78,71,66,69,66,63,96,83,70,29.91,29.77,3,0,8,0.15
2012-8-18,83,69,58,65,59,51,99,75,35,29.94,29.83,2,0,3,0.00
2012-8-19,81,69,59,63,59,54,99,75,40,29.87,29.78,2,0,3,0.00
2012-8-20,82,69,57,62,57,48,98,71,32,29.94,29.82,2,0,6,0.00
2012-8-21,82,66,53,62,57,52,99,75,39,30.05,29.94,2,0,6,0.00
2012-8-22,86,70,55,64,58,51,99,72,32,30.12,30.02,2,0,6,0.00
2012-8-23,89,71,56,67,58,52,99,70,30,30.13,30.03,2,0,5,0.00
2012-8-24,90,73,58,66,60,54,99,69,30,30.11,30.00,2,0,8,0.00
2012-8-25,91,74,62,66,62,56,98,71,32,30.11,30.01,2,0,5,0.00
2012-8-26,90,73,59,67,61,58,99,71,35,30.14,30.00,3,0,7,0.00
2012-8-27,92,77,63,71,65,61,97,71,38,30.06,29.90,5,1,10,0.03
2012-8-28,90,78,66,74,66,55,98,72,32,30.00,29.89,2,0,5,0.03
2012-8-29,87,73,61,62,58,53,95,64,32,30.03,29.93,2,0,5,0.00
2012-8-30,91,72,55,62,57,50,98,65,24,30.08,29.99,2,0,7,0.00
2012-8-31,94,78,63,73,68,60,96,72,43,30.14,30.02,6,1,11,0.00
2012-9-1,90,77,73,74,73,71,97,88,55,30.09,29.96,6,0,11,0.38
2012-9-2,89,78,71,75,72,70,99,84,59,29.97,29.81,3,0,6,0.12
2012-9-3,84,74,71,75,72,70,98,92,66,29.88,29.81,6,0,6,0.15
2012-9-4,88,77,70,73,72,70,99,84,56,29.87,29.77,4,1,6,0.00
2012-9-5,91,80,72,75,71,68,99,77,49,29.84,29.73,4,0,4,0.01
2012-9-6,85,76,69,71,70,67,96,81,61,29.91,29.80,3,1,5,0.03
2012-9-7,90,76,64,73,67,64,100,77,44,29.92,29.68,3,1,8,0.00
2012-9-8,78,68,58,68,62,56,97,83,57,29.89,29.61,5,1,8,0.42
2012-9-9,76,66,54,59,55,50,99,72,40,30.00,29.86,3,0,3,0.00
2012-9-10,76,64,52,57,51,42,97,66,32,30.17,30.00,3,0,6,0.00
2012-9-11,80,62,48,57,49,45,100,69,30,30.27,30.17,3,0,6,0.00
2012-9-12,86,68,51,62,56,50,99,72,35,30.28,30.17,3,0,4,0.00
2012-9-13,83,70,57,64,60,56,99,75,40,30.29,30.16,3,0,6,0.00
2012-9-14,86,71,59,64,60,55,99,72,36,30.22,30.09,4,1,11,0.02
2012-9-15,77,64,51,55,49,44,95,63,33,30.28,30.12,4,1,5,0.00
2012-9-16,80,64,54,55,50,44,95,67,30,30.14,29.99,3,0,5,0.00
2012-9-17,76,64,55,67,60,51,98,86,62,30.02,29.75,4,0,8,0.68
2012-9-18,70,66,58,68,61,49,100,87,62,29.93,29.57,5,1,10,1.85
2012-9-19,68,56,43,49,42,33,99,64,29,30.15,29.94,2,0,5,0.00
2012-9-20,78,59,42,58,49,41,100,75,36,30.09,29.92,5,1,10,0.00
2012-9-21,79,70,60,61,57,56,91,67,46,29.99,29.75,4,1,10,0.00
2012-9-22,76,69,53,59,49,29,68,51,28,30.09,29.75,7,4,13,0.00
2012-9-23,66,55,38,45,40,30,91,60,34,30.21,30.10,5,0,12,0.00
2012-9-24,68,52,37,47,40,33,98,70,28,30.28,30.08,5,0,10,0.00
2012-9-25,60,53,42,59,50,41,98,90,63,30.12,29.98,5,0,13,0.25
2012-9-26,80,68,58,68,62,56,98,81,53,30.11,29.99,7,1,20,0.13
2012-9-27,75,68,63,67,64,62,99,90,69,30.11,30.02,6,1,13,0.50
2012-9-28,64,62,60,64,62,59,100,99,98,30.07,30.00,2,0,5,1.60
2012-9-29,70,60,51,59,52,45,100,78,41,30.04,29.91,5,1,12,0.00
2012-9-30,76,59,45,58,52,45,100,80,40,29.92,29.77,6,0,17,0.00
2012-10-1,60,57,50,59,54,49,99,90,69,29.83,29.66,5,0,10,0.21
2012-10-2,83,71,58,70,65,58,99,82,60,29.85,29.64,6,1,12,0.14
2012-10-3,76,67,59,63,58,54,94,76,46,30.11,29.85,5,1,12,0.00
2012-10-4,78,64,55,61,57,54,100,79,44,30.21,30.11,6,1,12,0.00
2012-10-5,80,65,52,62,56,52,100,78,43,30.14,29.87,4,1,11,0.00
2012-10-6,67,54,44,58,43,31,92,68,30,30.10,29.82,6,1,12,0.03
2012-10-7,55,48,38,43,39,36,95,71,48,30.18,30.04,3,0,6,0.00
2012-10-8,48,43,37,44,41,36,99,92,78,30.25,30.16,3,0,6,0.04
2012-10-9,58,46,39,46,42,38,100,89,58,30.21,30.02,3,0,3,0.00
2012-10-10,62,50,39,48,41,35,99,76,38,30.22,29.97,5,2,12,0.00
2012-10-11,64,45,30,46,35,29,100,73,30,30.32,30.15,3,0,6,0.00
2012-10-12,63,50,37,46,40,36,99,74,45,30.34,30.18,3,0,7,0.00
2012-10-13,75,56,36,56,46,35,99,73,47,30.33,30.06,5,1,12,0.00
2012-10-14,77,68,60,59,55,50,75,63,51,30.06,29.74,9,3,17,0.00
2012-10-15,69,57,44,62,49,42,95,77,57,29.93,29.71,5,2,12,0.12
2012-10-16,67,50,36,48,41,35,100,76,36,30.02,29.83,3,0,6,0.00
2012-10-17,76,59,43,52,46,42,96,67,41,29.87,29.61,5,1,11,0.00
2012-10-18,64,58,49,52,47,42,97,68,53,29.74,29.55,7,2,16,0.01
2012-10-19,65,53,43,48,43,32,99,74,30,29.73,29.56,8,2,14,0.05
2012-10-20,59,51,42,44,42,40,91,72,52,29.99,29.71,6,2,11,0.00
2012-10-21,68,50,36,50,41,35,100,77,41,30.15,29.99,3,0,7,0.00
2012-10-22,81,59,42,55,48,40,98,71,36,30.16,30.04,3,0,5,0.00
2012-10-23,80,63,50,55,50,44,97,69,28,30.09,29.99,5,1,8,0.00
2012-10-24,82,65,55,58,53,49,94,69,32,30.14,30.00,3,0,6,0.00
2012-10-25,83,63,47,54,50,46,99,69,30,30.08,29.94,4,0,6,0.00
2012-10-26,77,60,50,57,51,47,93,74,47,30.05,29.92,4,1,10,0.00
2012-10-27,54,50,48,49,47,45,97,89,82,30.02,29.93,3,1,6,0.27
2012-10-28,48,44,39,45,42,37,96,93,88,30.00,29.88,5,2,18,1.18
2012-10-29,40,38,36,38,36,34,94,92,91,29.93,29.58,8,5,26,0.76
2012-10-30,40,36,33,39,35,32,97,95,92,29.60,29.43,7,3,25,1.03
2012-10-31,42,40,39,40,38,37,96,93,85,29.81,29.59,4,2,17,0.19
2012-11-1,55,45,39,39,32,20,95,64,30,29.84,29.77,5,2,18,0.01
2012-11-2,56,46,34,35,30,25,85,54,34,30.06,29.78,5,1,18,0.00
2012-11-3,49,39,28,40,32,27,97,81,51,30.18,30.05,2,0,8,0.14
2012-11-4,52,44,35,39,34,30,94,71,46,30.12,30.05,3,0,5,0.00
2012-11-5,49,37,28,35,29,27,98,76,45,30.17,30.07,3,0,7,0.00
2012-11-6,56,40,26,36,31,24,94,70,42,30.08,29.88,1,0,3,0.00
2012-11-7,58,46,35,37,34,29,89,65,35,30.04,29.84,3,0,8,0.00
2012-11-8,54,38,27,34,30,26,96,74,40,30.23,30.04,2,0,4,0.00
2012-11-9,61,42,27,38,32,26,96,72,36,30.30,30.15,3,0,7,0.00
2012-11-10,75,53,36,41,37,33,91,60,25,30.26,30.14,4,1,8,0.00
2012-11-11,74,55,36,45,38,32,96,59,22,30.33,30.12,5,1,10,0.00
2012-11-12,69,56,33,55,45,30,95,69,49,30.40,29.97,6,2,10,0.19
2012-11-13,48,35,27,35,27,24,98,75,41,30.50,30.41,2,0,6,0.01
2012-11-14,45,34,24,30,26,22,95,73,49,30.52,30.34,4,1,6,0.01
2012-11-15,53,37,25,32,28,23,95,73,42,30.36,30.26,2,0,3,0.00
2012-11-16,54,37,26,33,28,25,96,74,37,30.45,30.32,3,0,6,0.00
2012-11-17,60,40,26,35,29,24,96,70,30,30.54,30.42,3,0,6,0.00
2012-11-18,60,41,25,33,29,24,96,67,30,30.48,30.36,2,0,5,0.00
2012-11-19,59,41,27,38,33,26,96,74,42,30.37,30.17,2,0,2,0.00
2012-11-20,64,47,35,40,36,32,94,69,33,30.17,30.04,1,0,2,0.00
2012-11-21,65,47,33,38,34,31,95,67,30,30.20,30.09,2,0,6,0.00
2012-11-22,67,46,30,39,34,28,96,70,32,30.24,30.03,3,0,6,0.00
2012-11-23,56,48,35,47,35,22,90,61,35,30.12,29.91,8,3,12,0.01
2012-11-24,35,33,27,23,20,18,74,58,53,30.20,30.12,6,2,10,0.00
2012-11-25,50,36,24,26,21,17,82,57,30,30.14,29.91,5,1,10,0.00
2012-11-26,56,44,29,40,30,25,87,62,35,30.17,30.01,3,0,4,0.04
2012-11-27,43,39,37,40,34,30,95,84,75,30.31,30.14,3,0,8,0.15
2012-11-28,46,35,26,32,27,22,94,74,38,30.42,30.29,4,1,9,0.00
2012-11-29,51,34,21,31,25,19,93,74,38,30.45,30.27,4,0,6,0.00
2012-11-30,59,42,28,38,32,25,93,71,41,30.31,30.16,5,1,8,0.00
2012-12-1,65,47,33,46,39,31,95,78,49,30.31,30.19,4,0,6,0.00
2012-12-2,67,54,41,56,49,39,99,85,52,30.19,30.07,7,1,12,0.58
2012-12-3,72,60,50,59,54,50,100,84,56,30.18,30.08,4,1,7,0.01
2012-12-4,68,60,45,57,51,43,95,74,59,30.17,30.01,10,2,13,0.32
2012-12-5,55,45,36,46,38,29,99,77,49,30.30,30.17,3,0,7,0.01
2012-12-6,54,42,27,47,34,25,93,74,53,30.28,30.00,3,0,6,0.00
2012-12-7,54,52,50,53,51,46,99,95,83,30.00,29.84,1,0,2,0.55
2012-12-8,62,57,52,56,54,51,100,92,82,29.98,29.83,4,1,7,0.24
2012-12-9,62,55,49,59,54,49,100,96,82,30.00,29.71,4,1,11,0.46
2012-12-10,62,50,36,57,48,34,97,93,78,29.88,29.58,7,2,10,1.06
2012-12-11,38,34,27,35,28,23,95,79,58,30.26,29.88,5,1,12,0.00
2012-12-12,43,30,23,33,25,22,97,83,51,30.42,30.26,3,0,8,0.01
2012-12-13,48,32,21,31,26,20,95,80,45,30.43,30.29,2,0,5,0.01
2012-12-14,56,36,22,36,28,21,96,75,32,30.35,30.18,2,0,3,0.00
2012-12-15,57,45,32,40,34,29,89,68,42,30.18,29.82,4,1,11,0.00
2012-12-16,62,58,55,53,50,38,85,74,49,29.83,29.67,4,2,8,0.00
2012-12-17,60,55,53,53,50,48,98,85,68,29.71,29.51,4,1,6,0.40
2012-12-18,46,42,36,44,39,33,93,87,76,29.85,29.61,4,1,8,0.06
2012-12-19,53,43,33,40,36,31,95,78,59,30.08,29.81,3,0,6,0.00
2012-12-20,52,44,36,48,39,28,93,84,62,30.00,29.38,11,3,22,0.65
2012-12-21,36,30,27,29,24,22,91,78,71,30.00,29.57,10,6,24,0.00
2012-12-22,37,30,23,23,22,21,91,73,56,30.24,30.00,6,2,13,0.00
2012-12-23,54,38,22,30,25,20,93,63,37,30.12,29.91,5,1,10,0.00
2012-12-24,48,42,34,47,41,32,98,95,91,29.91,29.74,2,0,3,0.03
2012-12-25,45,38,34,43,32,27,93,78,67,30.14,29.92,6,2,12,0.00
2012-12-26,43,38,32,41,33,-100,97,89,83,30.00,29.43,8,-21,15,0.61
2012-12-27,32,31,30,28,25,22,86,77,70,30.17,29.81,6,2,13,0.00
2012-12-28,40,34,30,31,28,26,93,77,64,30.16,29.82,3,1,6,0.01
2012-12-29,34,32,29,33,30,24,98,93,79,30.15,29.65,6,1,12,0.17
2012-12-30,33,27,22,24,21,20,92,78,62,30.46,30.15,5,2,16,0.06
2012-12-31,37,30,21,30,24,19,94,80,62,30.40,30.08,2,0,3,0.00
2013-1-1,36,32,30,35,22,-100,98,83,74,30.11,30.00,2,-57,7,0.23